Time;durP1;ratioP1;P1;durP2;ratioP2;P2;SDS_P1;SDS_P2;PMS_P1;PMS_P2;Temp;Humidity;BMP_temperature;BMP_pressure;BME280_temperature;BME280_humidity;BME280_pressure;Samples;Min_cycle;Max_cycle;Signal;HPM_P1;HPM_P2
2023/04/14 00:01:24;;;;;;;;;;;;;;;5.34;100.00;98433.88;5044319;28;19920;-78
2023/04/14 00:03:50;;;;;;;;;;;;;;;5.47;100.00;98445.88;5043130;28;19928;-78
2023/04/14 00:06:16;;;;;;;;;;;;;;;5.41;100.00;98441.19;5044581;28;20270;-79
2023/04/14 00:08:41;;;;;;;;;;;;;;;5.41;100.00;98433.34;5043475;28;19931;-80
2023/04/14 00:11:06;;;;;;;;;;;;;;;5.17;100.00;98446.81;5041666;28;19925;-80
2023/04/14 00:13:32;;;;;;;;;;;;;;;5.24;100.00;98448.72;5044618;28;19921;-78
2023/04/14 00:15:57;;;;;;;;;;;;;;;5.10;100.00;98446.53;5045326;28;19963;-79
2023/04/14 00:18:22;;;;;;;;;;;;;;;5.08;100.00;98458.91;5043529;28;20423;-79
2023/04/14 00:20:48;;;;;;;;;;;;;;;5.13;100.00;98455.88;5046683;28;20011;-79
2023/04/14 00:23:13;;;;;;;;;;;;;;;5.17;100.00;98452.88;5054473;28;19982;-79
2023/04/14 00:25:39;;;;;;;;;;;;;;;5.07;100.00;98456.41;5062471;28;20011;-79
2023/04/14 00:28:04;;;;;;;;;;;;;;;4.79;100.00;98458.00;5063776;28;19921;-81
2023/04/14 00:30:29;;;;;;;;;;;;;;;4.90;100.00;98460.50;5061651;28;19935;-81
2023/04/14 00:32:55;;;;;;;;;;;;;;;4.84;100.00;98451.41;5047055;28;19939;-79
2023/04/14 00:35:23;;;;;;;;;;;;;;;4.96;100.00;98452.13;5049050;28;19967;-79
2023/04/14 00:37:50;;;;;;;;;;;;;;;5.00;100.00;98448.28;5066833;28;19924;-79
2023/04/14 00:40:16;;;;;;;;;;;;;;;4.90;100.00;98466.56;5043738;28;20011;-80
2023/04/14 00:42:45;;;;;;;;;;;;;;;4.98;100.00;98468.50;5064829;28;20731;-80
2023/04/14 00:45:11;;;;;;;;;;;;;;;4.95;100.00;98463.53;5065782;28;20335;-80
2023/04/14 00:47:37;;;;;;;;;;;;;;;4.90;100.00;98465.72;5046430;28;20023;-79
2023/04/14 00:50:03;;;;;;;;;;;;;;;4.88;100.00;98465.06;5059778;28;19917;-79
2023/04/14 00:52:29;;;;;;;;;;;;;;;4.93;100.00;98460.25;5063534;28;19991;-79
2023/04/14 00:54:55;;;;;;;;;;;;;;;4.85;100.00;98452.25;5044100;28;19956;-82
2023/04/14 00:57:20;;;;;;;;;;;;;;;4.92;100.00;98448.13;5045606;28;20396;-82
2023/04/14 00:59:46;;;;;;;;;;;;;;;4.93;100.00;98445.38;5063165;28;20039;-82
2023/04/14 01:02:11;;;;;;;;;;;;;;;4.93;100.00;98444.56;5042144;28;19963;-82
2023/04/14 01:04:37;;;;;;;;;;;;;;;5.03;100.00;98444.56;5045176;28;19920;-82
2023/04/14 01:07:03;;;;;;;;;;;;;;;5.06;100.00;98439.91;5061907;28;20320;-83
2023/04/14 01:09:28;;;;;;;;;;;;;;;5.07;100.00;98441.53;5048169;28;19948;-82
2023/04/14 01:12:15;;;;;;;;;;;;;;;5.05;100.00;98437.44;5058627;28;20023;-82
2023/04/14 01:14:46;;;;;;;;;;;;;;;5.03;100.00;98440.16;5065833;28;19940;-82
2023/04/14 01:17:20;;;;;;;;;;;;;;;4.95;100.00;98442.63;5065054;28;20010;-81
2023/04/14 01:20:04;;;;;;;;;;;;;;;4.94;100.00;98435.75;5054131;28;19921;-82
2023/04/14 01:22:30;;;;;;;;;;;;;;;4.63;100.00;98442.81;5041814;28;19925;-82
2023/04/14 01:25:21;;;;;;;;;;;;;;;4.68;100.00;98439.81;5042569;28;20019;-83
2023/04/14 01:28:04;;;;;;;;;;;;;;;4.40;100.00;98442.19;5065852;28;19927;-82
2023/04/14 01:30:36;;;;;;;;;;;;;;;4.41;100.00;98456.09;5040073;28;19963;-82
2023/04/14 01:33:05;;;;;;;;;;;;;;;4.52;100.00;98446.38;5065024;28;19932;-80
2023/04/14 01:35:51;;;;;;;;;;;;;;;4.44;100.00;98458.41;5047102;28;19920;-82
2023/04/14 01:38:28;;;;;;;;;;;;;;;4.31;100.00;98442.97;5042898;28;20438;-79
2023/04/14 01:41:01;;;;;;;;;;;;;;;4.24;100.00;98452.25;5064198;28;20244;-81
2023/04/14 01:43:27;;;;;;;;;;;;;;;4.35;100.00;98460.03;5049393;28;20411;-81
2023/04/14 01:45:55;;;;;;;;;;;;;;;4.45;100.00;98462.69;5039973;28;20351;-81
2023/04/14 01:48:23;;;;;;;;;;;;;;;4.54;100.00;98457.50;5047171;28;19987;-81
2023/04/14 01:50:48;;;;;;;;;;;;;;;4.36;100.00;98466.09;5043499;28;19951;-81
2023/04/14 01:53:15;;;;;;;;;;;;;;;4.26;100.00;98460.81;5043238;28;20052;-81
2023/04/14 01:55:43;;;;;;;;;;;;;;;4.25;100.00;98466.97;5064975;28;19921;-79
2023/04/14 01:58:08;;;;;;;;;;;;;;;4.29;100.00;98464.97;5044152;28;19947;-80
2023/04/14 02:00:35;;;;;;;;;;;;;;;4.35;100.00;98470.50;5045571;28;20359;-81
2023/04/14 02:03:02;;;;;;;;;;;;;;;4.19;100.00;98470.09;5046958;28;19920;-81
2023/04/14 02:05:30;;;;;;;;;;;;;;;4.08;100.00;98472.78;5062237;28;20304;-81
2023/04/14 02:07:58;;;;;;;;;;;;;;;3.95;100.00;98467.75;5066146;28;19921;-81
2023/04/14 02:10:24;;;;;;;;;;;;;;;3.97;100.00;98459.81;5056443;28;19943;-81
2023/04/14 02:12:51;;;;;;;;;;;;;;;4.07;100.00;98458.09;5062328;28;20434;-81
2023/04/14 02:15:17;;;;;;;;;;;;;;;3.94;100.00;98460.09;5045805;28;19943;-82
2023/04/14 02:17:45;;;;;;;;;;;;;;;3.94;100.00;98460.09;5064863;28;19917;-79
2023/04/14 02:20:12;;;;;;;;;;;;;;;3.77;100.00;98463.25;5043946;28;20018;-82
2023/04/14 02:22:37;;;;;;;;;;;;;;;3.80;100.00;98461.22;5039492;28;20009;-81
2023/04/14 02:25:03;;;;;;;;;;;;;;;3.81;100.00;98459.44;5060990;28;20376;-81
2023/04/14 02:27:34;;;;;;;;;;;;;;;3.80;100.00;98463.00;5045868;28;19974;-81
2023/04/14 02:30:04;;;;;;;;;;;;;;;3.75;100.00;98462.56;5043133;28;19944;-79
2023/04/14 02:32:30;;;;;;;;;;;;;;;3.39;100.00;98459.41;5046440;28;19999;-79
2023/04/14 02:35:16;;;;;;;;;;;;;;;3.22;100.00;98452.94;5046101;28;20415;-80
2023/04/14 02:37:43;;;;;;;;;;;;;;;3.32;100.00;98460.84;5060237;28;19923;-80
2023/04/14 02:40:15;;;;;;;;;;;;;;;3.32;100.00;98454.78;5063873;28;19926;-81
2023/04/14 02:42:43;;;;;;;;;;;;;;;3.37;100.00;98456.06;5044043;28;19955;-80
2023/04/14 02:45:12;;;;;;;;;;;;;;;3.56;100.00;98461.44;5044244;28;19920;-82
2023/04/14 02:47:40;;;;;;;;;;;;;;;3.51;100.00;98461.00;5046682;28;19924;-81
2023/04/14 02:50:08;;;;;;;;;;;;;;;3.48;100.00;98461.25;5043662;28;20054;-82
2023/04/14 02:52:37;;;;;;;;;;;;;;;3.52;100.00;98452.25;5043498;28;19971;-82
2023/04/14 02:55:05;;;;;;;;;;;;;;;3.58;100.00;98451.72;5041467;28;19925;-80
2023/04/14 02:57:32;;;;;;;;;;;;;;;3.61;100.00;98453.25;5060478;28;19928;-81
2023/04/14 02:59:58;;;;;;;;;;;;;;;3.61;100.00;98450.63;5043526;28;19921;-81
2023/04/14 03:02:24;;;;;;;;;;;;;;;3.67;100.00;98453.56;5042799;28;19921;-80
2023/04/14 03:05:02;;;;;;;;;;;;;;;3.65;100.00;98439.00;5043851;28;20109;-80
2023/04/14 03:07:40;;;;;;;;;;;;;;;3.40;100.00;98448.00;5042628;28;19928;-80
2023/04/14 03:10:07;;;;;;;;;;;;;;;3.40;100.00;98444.56;5060955;28;19928;-82
2023/04/14 03:12:34;;;;;;;;;;;;;;;3.33;100.00;98441.63;5044490;28;20398;-80
2023/04/14 03:15:01;;;;;;;;;;;;;;;3.44;100.00;98438.97;5028362;28;19920;-79
2023/04/14 03:17:27;;;;;;;;;;;;;;;3.50;100.00;98443.69;5041606;28;19927;-79
2023/04/14 03:19:53;;;;;;;;;;;;;;;3.46;100.00;98449.28;5041519;28;19943;-80
2023/04/14 03:22:19;;;;;;;;;;;;;;;3.46;100.00;98447.53;5042750;28;19928;-79
2023/04/14 03:24:46;;;;;;;;;;;;;;;3.41;100.00;98451.44;5041133;28;20033;-79
2023/04/14 03:27:13;;;;;;;;;;;;;;;3.31;100.00;98456.56;5029190;28;19931;-79
2023/04/14 03:29:42;;;;;;;;;;;;;;;3.17;100.00;98456.88;5044101;28;19921;-80
2023/04/14 03:32:08;;;;;;;;;;;;;;;3.26;100.00;98463.94;5042236;28;20334;-78
2023/04/14 03:34:39;;;;;;;;;;;;;;;3.06;100.00;98462.13;5043943;28;19921;-82
2023/04/14 03:37:06;;;;;;;;;;;;;;;3.09;100.00;98456.66;5040492;28;19971;-81
2023/04/14 03:39:35;;;;;;;;;;;;;;;3.03;100.00;98457.13;5039159;28;19925;-81
2023/04/14 03:42:01;;;;;;;;;;;;;;;3.05;100.00;98455.25;5044367;28;19921;-81
2023/04/14 03:44:31;;;;;;;;;;;;;;;3.05;100.00;98450.03;5060769;28;19943;-80
2023/04/14 03:46:59;;;;;;;;;;;;;;;3.07;100.00;98450.72;5042713;28;20403;-80
2023/04/14 03:49:26;;;;;;;;;;;;;;;3.15;100.00;98453.53;5042713;28;19928;-80
2023/04/14 03:51:57;;;;;;;;;;;;;;;3.08;100.00;98454.97;5062570;28;19924;-80
2023/04/14 03:54:24;;;;;;;;;;;;;;;3.19;100.00;98458.38;5045221;28;19947;-79
2023/04/14 03:56:54;;;;;;;;;;;;;;;3.19;100.00;98452.34;5058295;28;20369;-81
2023/04/14 03:59:22;;;;;;;;;;;;;;;2.92;100.00;98459.75;5044566;28;20529;-83
2023/04/14 04:01:48;;;;;;;;;;;;;;;2.92;100.00;98459.75;5045615;28;19920;-81
2023/04/14 04:04:14;;;;;;;;;;;;;;;2.97;100.00;98452.41;5042460;28;19927;-81
2023/04/14 04:06:40;;;;;;;;;;;;;;;3.03;100.00;98451.91;5044806;28;19964;-79
2023/04/14 04:09:06;;;;;;;;;;;;;;;3.00;100.00;98454.78;5046623;28;19940;-80
2023/04/14 04:11:33;;;;;;;;;;;;;;;3.02;100.00;98450.25;5065461;28;19924;-80
2023/04/14 04:14:00;;;;;;;;;;;;;;;2.93;100.00;98451.00;5069935;28;20365;-81
2023/04/14 04:16:27;;;;;;;;;;;;;;;2.83;100.00;98450.88;5052035;28;20364;-79
2023/04/14 04:18:53;;;;;;;;;;;;;;;2.67;100.00;98456.47;5056527;28;19927;-80
2023/04/14 04:21:26;;;;;;;;;;;;;;;2.43;100.00;98458.38;5037521;28;19971;-78
2023/04/14 04:23:53;;;;;;;;;;;;;;;2.66;100.00;98469.63;5047818;28;20468;-78
2023/04/14 04:26:18;;;;;;;;;;;;;;;2.59;100.00;98479.72;5042334;28;19928;-78
2023/04/14 04:28:45;;;;;;;;;;;;;;;2.44;100.00;98470.47;5042955;28;19920;-79
2023/04/14 04:31:12;;;;;;;;;;;;;;;2.37;100.00;98477.06;5042367;28;19928;-78
2023/04/14 04:33:40;;;;;;;;;;;;;;;2.53;100.00;98474.97;5041251;28;19920;-78
2023/04/14 04:36:06;;;;;;;;;;;;;;;2.48;100.00;98482.28;5040560;28;19927;-78
2023/04/14 04:38:36;;;;;;;;;;;;;;;2.51;100.00;98482.06;5042815;28;19970;-78
2023/04/14 04:41:02;;;;;;;;;;;;;;;2.62;100.00;98476.84;5044390;28;20347;-78
2023/04/14 04:43:29;;;;;;;;;;;;;;;2.61;100.00;98462.16;5040939;28;19921;-80
2023/04/14 04:46:11;;;;;;;;;;;;;;;2.67;100.00;98474.72;5043723;28;19964;-80
2023/04/14 04:48:36;;;;;;;;;;;;;;;2.50;100.00;98470.00;5054501;28;20035;-79
2023/04/14 04:51:04;;;;;;;;;;;;;;;2.41;100.00;98470.72;5043085;28;19921;-80
2023/04/14 04:53:29;;;;;;;;;;;;;;;2.00;100.00;98471.25;5071315;28;19931;-82
2023/04/14 04:55:56;;;;;;;;;;;;;;;1.96;100.00;98493.22;5041336;28;19921;-80
2023/04/14 04:58:21;;;;;;;;;;;;;;;1.92;100.00;98490.03;5062005;28;20706;-80
2023/04/14 05:00:47;;;;;;;;;;;;;;;1.88;100.00;98483.41;5043559;28;19960;-82
2023/04/14 05:03:12;;;;;;;;;;;;;;;2.03;100.00;98491.84;5062357;28;19947;-83
2023/04/14 05:05:37;;;;;;;;;;;;;;;2.01;100.00;98491.94;5064321;28;20007;-82
2023/04/14 05:08:03;;;;;;;;;;;;;;;2.11;100.00;98493.88;5063832;28;20007;-82
2023/04/14 05:10:28;;;;;;;;;;;;;;;2.17;100.00;98493.41;5062962;28;19955;-84
2023/04/14 05:12:54;;;;;;;;;;;;;;;2.14;100.00;98511.84;5059347;28;20320;-81
2023/04/14 05:15:19;;;;;;;;;;;;;;;1.81;100.00;98516.03;5047153;28;19920;-81
2023/04/14 05:17:45;;;;;;;;;;;;;;;1.85;100.00;98509.63;5064047;28;19921;-81
2023/04/14 05:20:10;;;;;;;;;;;;;;;1.94;100.00;98519.38;5064565;28;19928;-82
2023/04/14 05:22:36;;;;;;;;;;;;;;;1.94;100.00;98514.19;5063949;28;20365;-82
2023/04/14 05:25:01;;;;;;;;;;;;;;;2.02;100.00;98522.22;5062331;28;20073;-87
2023/04/14 05:27:27;;;;;;;;;;;;;;;2.25;100.00;98528.31;5063077;28;19921;-85
2023/04/14 05:29:52;;;;;;;;;;;;;;;2.32;100.00;98528.66;5061428;28;19920;-81
2023/04/14 05:32:17;;;;;;;;;;;;;;;2.39;100.00;98541.13;5060390;28;20301;-83
2023/04/14 05:34:43;;;;;;;;;;;;;;;2.39;100.00;98550.69;5046589;28;19928;-82
2023/04/14 05:37:09;;;;;;;;;;;;;;;2.43;100.00;98546.91;5060752;28;19925;-82
2023/04/14 05:39:34;;;;;;;;;;;;;;;2.49;100.00;98546.44;5063276;28;19927;-80
2023/04/14 05:42:00;;;;;;;;;;;;;;;2.59;100.00;98544.81;5065219;28;20297;-83
2023/04/14 05:44:25;;;;;;;;;;;;;;;2.79;100.00;98554.53;5065885;28;19921;-84
2023/04/14 05:46:51;;;;;;;;;;;;;;;2.88;100.00;98569.47;5062938;28;19948;-85
2023/04/14 05:49:16;;;;;;;;;;;;;;;3.00;100.00;98566.84;5045162;28;19924;-83
2023/04/14 05:51:41;;;;;;;;;;;;;;;3.13;100.00;98575.34;5064670;28;19968;-83
2023/04/14 05:54:07;;;;;;;;;;;;;;;3.27;100.00;98569.88;5062484;28;20292;-85
2023/04/14 05:56:32;;;;;;;;;;;;;;;3.47;100.00;98574.38;5031491;28;19920;-84
2023/04/14 05:58:58;;;;;;;;;;;;;;;3.55;100.00;98578.94;5045061;28;19921;-86
2023/04/14 06:01:23;;;;;;;;;;;;;;;3.74;100.00;98573.09;5061015;28;19967;-86
2023/04/14 06:03:48;;;;;;;;;;;;;;;3.85;100.00;98578.25;5063655;28;19928;-83
2023/04/14 06:06:15;;;;;;;;;;;;;;;4.02;100.00;98582.94;5055010;28;19925;-79
2023/04/14 06:08:40;;;;;;;;;;;;;;;4.17;100.00;98591.31;5058881;28;19928;-86
2023/04/14 06:11:05;;;;;;;;;;;;;;;4.33;100.00;98582.09;5062903;28;20065;-83
2023/04/14 06:13:32;;;;;;;;;;;;;;;4.45;100.00;98575.00;5061105;28;19924;-84
2023/04/14 06:15:58;;;;;;;;;;;;;;;4.43;100.00;98576.91;5064381;28;19961;-84
2023/04/14 06:18:23;;;;;;;;;;;;;;;4.63;100.00;98588.31;5061108;28;19928;-81
2023/04/14 06:20:48;;;;;;;;;;;;;;;4.81;100.00;98592.00;5060901;28;19929;-83
2023/04/14 06:23:14;;;;;;;;;;;;;;;4.87;100.00;98587.09;5061484;28;19924;-81
2023/04/14 06:25:40;;;;;;;;;;;;;;;4.95;100.00;98583.78;5062259;28;20340;-83
2023/04/14 06:28:06;;;;;;;;;;;;;;;5.01;100.00;98578.03;5043647;28;19966;-82
2023/04/14 06:30:32;;;;;;;;;;;;;;;5.11;100.00;98578.94;5066778;28;20012;-83
2023/04/14 06:32:57;;;;;;;;;;;;;;;5.10;100.00;98577.25;5065663;28;19956;-83
2023/04/14 06:35:23;;;;;;;;;;;;;;;5.25;100.00;98573.31;5059971;28;19935;-84
2023/04/14 06:37:49;;;;;;;;;;;;;;;5.22;100.00;98570.97;5074418;28;20328;-83
2023/04/14 06:40:14;;;;;;;;;;;;;;;5.36;100.00;98577.59;5080208;28;19921;-83
2023/04/14 06:42:40;;;;;;;;;;;;;;;5.52;100.00;98582.34;5056934;28;19921;-84
2023/04/14 06:45:05;;;;;;;;;;;;;;;5.70;100.00;98580.72;5064490;28;19920;-84
2023/04/14 06:47:31;;;;;;;;;;;;;;;5.86;100.00;98585.41;5064544;28;19990;-83
2023/04/14 06:49:57;;;;;;;;;;;;;;;6.13;100.00;98585.59;5044613;28;19924;-84
2023/04/14 06:52:22;;;;;;;;;;;;;;;6.35;100.00;98587.09;5042703;28;20498;-82
2023/04/14 06:54:48;;;;;;;;;;;;;;;6.55;100.00;98578.22;5060173;28;19921;-82
2023/04/14 06:57:13;;;;;;;;;;;;;;;6.73;100.00;98584.41;5060543;28;20381;-82
2023/04/14 06:59:39;;;;;;;;;;;;;;;6.88;100.00;98579.53;5061558;28;19921;-85
2023/04/14 07:02:06;;;;;;;;;;;;;;;6.99;100.00;98582.81;5056844;28;19920;-83
2023/04/14 07:04:31;;;;;;;;;;;;;;;7.01;99.09;98580.03;5069688;28;19921;-85
2023/04/14 07:07:00;;;;;;;;;;;;;;;7.25;99.34;98576.88;5065511;28;19928;-85
2023/04/14 07:09:27;;;;;;;;;;;;;;;7.39;98.13;98573.78;5057254;28;19921;-84
2023/04/14 07:11:52;;;;;;;;;;;;;;;7.54;97.88;98574.94;5063097;28;19999;-85
2023/04/14 07:14:18;;;;;;;;;;;;;;;7.68;96.28;98584.94;5064435;28;19921;-85
2023/04/14 07:16:43;;;;;;;;;;;;;;;7.81;95.48;98585.41;5057879;28;20377;-84
2023/04/14 07:19:08;;;;;;;;;;;;;;;8.00;95.99;98588.88;5064307;28;19920;-86
2023/04/14 07:21:34;;;;;;;;;;;;;;;8.09;94.89;98595.84;5041777;28;19920;-85
2023/04/14 07:23:59;;;;;;;;;;;;;;;8.21;94.86;98597.28;5057926;28;20431;-85
2023/04/14 07:26:25;;;;;;;;;;;;;;;8.26;93.96;98595.00;5065219;28;19920;-85
2023/04/14 07:28:50;;;;;;;;;;;;;;;8.40;94.46;98585.81;5068490;28;19989;-85
2023/04/14 07:31:16;;;;;;;;;;;;;;;8.37;94.01;98594.81;5067686;28;19921;-84
2023/04/14 07:33:41;;;;;;;;;;;;;;;8.49;94.37;98593.59;5065386;28;20380;-84
2023/04/14 07:36:08;;;;;;;;;;;;;;;8.56;92.97;98585.91;5047708;28;19921;-84
2023/04/14 07:38:33;;;;;;;;;;;;;;;8.66;93.22;98593.72;5077669;28;19926;-83
2023/04/14 07:41:01;;;;;;;;;;;;;;;8.77;94.00;98604.00;5068254;28;19913;-84
2023/04/14 07:43:28;;;;;;;;;;;;;;;8.87;94.12;98600.28;5081076;28;19944;-84
2023/04/14 07:45:53;;;;;;;;;;;;;;;9.04;93.90;98598.56;5060186;28;19928;-83
2023/04/14 07:48:20;;;;;;;;;;;;;;;9.11;90.50;98606.66;5054930;28;19920;-83
2023/04/14 07:50:47;;;;;;;;;;;;;;;9.14;86.48;98601.91;5071981;28;20265;-85
2023/04/14 07:53:12;;;;;;;;;;;;;;;9.22;81.09;98603.75;5060311;28;19932;-85
2023/04/14 07:55:37;;;;;;;;;;;;;;;9.27;81.46;98607.56;5067872;28;19925;-85
2023/04/14 07:58:03;;;;;;;;;;;;;;;9.37;78.64;98617.97;5067846;28;19967;-85
2023/04/14 08:00:28;;;;;;;;;;;;;;;9.49;78.19;98615.88;5045695;28;19955;-84
2023/04/14 08:02:53;;;;;;;;;;;;;;;9.62;77.42;98616.25;5042620;28;19916;-85
2023/04/14 08:05:19;;;;;;;;;;;;;;;9.72;74.62;98612.50;5071088;28;19936;-84
2023/04/14 08:07:45;;;;;;;;;;;;;;;9.82;71.85;98617.66;5077061;28;19952;-84
2023/04/14 08:10:10;;;;;;;;;;;;;;;9.97;70.57;98621.31;5083224;28;19913;-85
2023/04/14 08:12:35;;;;;;;;;;;;;;;10.12;66.77;98626.78;5082191;28;19937;-83
2023/04/14 08:15:01;;;;;;;;;;;;;;;10.25;63.24;98625.31;5086728;28;20060;-85
2023/04/14 08:17:26;;;;;;;;;;;;;;;10.33;61.57;98636.88;5063050;28;19908;-84
2023/04/14 08:19:51;;;;;;;;;;;;;;;10.48;60.38;98636.09;5084510;28;19932;-85
2023/04/14 08:22:17;;;;;;;;;;;;;;;10.64;59.97;98637.88;5080793;28;19920;-83
2023/04/14 08:24:42;;;;;;;;;;;;;;;10.74;58.87;98630.63;5082171;28;19964;-85
2023/04/14 08:27:08;;;;;;;;;;;;;;;10.79;58.03;98636.22;5082434;28;19932;-83
2023/04/14 08:29:33;;;;;;;;;;;;;;;10.95;59.77;98633.59;5089750;28;19920;-85
2023/04/14 08:31:58;;;;;;;;;;;;;;;11.07;60.48;98640.13;5065114;28;19938;-84
2023/04/14 08:34:24;;;;;;;;;;;;;;;11.17;58.78;98639.13;5071090;28;19932;-83
2023/04/14 08:36:49;;;;;;;;;;;;;;;11.28;59.24;98634.31;5086341;28;19932;-84
2023/04/14 08:39:15;;;;;;;;;;;;;;;11.39;59.12;98635.78;5087437;28;19995;-84
2023/04/14 08:41:41;;;;;;;;;;;;;;;11.50;59.23;98630.13;5084953;28;20403;-82
2023/04/14 08:44:07;;;;;;;;;;;;;;;11.63;60.02;98638.31;5083891;28;19908;-83
2023/04/14 08:46:33;;;;;;;;;;;;;;;11.77;55.22;98642.09;5077979;28;19925;-83
2023/04/14 08:49:06;;;;;;;;;;;;;;;11.90;56.12;98643.19;5070951;28;19921;-84
2023/04/14 08:51:35;;;;;;;;;;;;;;;12.04;54.96;98635.50;5064392;28;19967;-84
2023/04/14 08:54:11;;;;;;;;;;;;;;;12.25;51.12;98633.09;5065127;28;20288;-83
2023/04/14 08:56:38;;;;;;;;;;;;;;;12.41;50.26;98630.31;5077430;28;19978;-84
2023/04/14 08:59:07;;;;;;;;;;;;;;;12.51;49.34;98635.34;5074828;28;19921;-83
2023/04/14 09:01:33;;;;;;;;;;;;;;;12.64;46.80;98635.59;5065152;28;19925;-83
2023/04/14 09:03:59;;;;;;;;;;;;;;;12.79;44.42;98635.63;5076171;28;19917;-82
2023/04/14 09:06:25;;;;;;;;;;;;;;;12.88;44.57;98629.25;5058251;28;20388;-83
2023/04/14 09:08:51;;;;;;;;;;;;;;;12.98;43.41;98624.53;5060116;28;19928;-83
2023/04/14 09:11:17;;;;;;;;;;;;;;;13.06;41.79;98627.09;5063494;28;19928;-82
2023/04/14 09:13:43;;;;;;;;;;;;;;;13.15;40.26;98633.97;5054672;28;19929;-82
2023/04/14 09:16:09;;;;;;;;;;;;;;;13.33;38.85;98634.44;5060708;28;19926;-82
2023/04/14 09:18:34;;;;;;;;;;;;;;;13.41;40.56;98629.06;5063241;28;20367;-83
2023/04/14 09:21:00;;;;;;;;;;;;;;;13.43;41.64;98629.69;5045616;28;19920;-81
2023/04/14 09:23:25;;;;;;;;;;;;;;;13.50;36.90;98624.47;5066456;28;19921;-83
2023/04/14 09:25:51;;;;;;;;;;;;;;;13.56;37.80;98629.03;5047836;28;20434;-83
2023/04/14 09:28:16;;;;;;;;;;;;;;;13.65;37.31;98629.78;5065067;28;19967;-81
2023/04/14 09:30:42;;;;;;;;;;;;;;;13.73;35.59;98627.00;5061449;28;19980;-82
2023/04/14 09:33:16;;;;;;;;;;;;;;;13.80;34.89;98630.56;5063277;28;20372;-83
2023/04/14 09:35:43;;;;;;;;;;;;;;;13.90;33.75;98625.81;5065061;28;19925;-84
2023/04/14 09:38:09;;;;;;;;;;;;;;;13.98;32.04;98627.53;5061144;28;20756;-83
2023/04/14 09:40:34;;;;;;;;;;;;;;;14.06;32.14;98625.59;5067379;28;20030;-83
2023/04/14 09:42:59;;;;;;;;;;;;;;;14.14;33.01;98628.09;5058413;28;20277;-82
2023/04/14 09:45:43;;;;;;;;;;;;;;;14.24;29.01;98622.50;5045683;28;20025;-84
2023/04/14 09:48:09;;;;;;;;;;;;;;;14.40;25.98;98621.47;5062844;28;20693;-83
2023/04/14 09:50:53;;;;;;;;;;;;;;;14.52;26.02;98614.63;5061749;28;20019;-83
2023/04/14 09:53:23;;;;;;;;;;;;;;;14.66;26.75;98616.41;5066741;28;19921;-83
2023/04/14 09:55:49;;;;;;;;;;;;;;;14.73;25.88;98610.13;5062283;28;19979;-83
2023/04/14 09:58:20;;;;;;;;;;;;;;;14.78;26.85;98609.56;5057735;28;19921;-83
2023/04/14 10:00:46;;;;;;;;;;;;;;;14.82;26.98;98605.50;5062942;28;19921;-82
2023/04/14 10:03:13;;;;;;;;;;;;;;;14.86;27.03;98604.09;5040445;28;20296;-82
2023/04/14 10:05:38;;;;;;;;;;;;;;;14.88;26.58;98599.41;5062230;28;19924;-83
2023/04/14 10:08:04;;;;;;;;;;;;;;;14.96;26.93;98599.25;5061902;28;20012;-84
2023/04/14 10:10:30;;;;;;;;;;;;;;;15.13;23.08;98611.25;5044060;28;19928;-82
2023/04/14 10:12:55;;;;;;;;;;;;;;;15.28;23.03;98605.00;5044425;28;20403;-84
2023/04/14 10:15:21;;;;;;;;;;;;;;;15.37;23.46;98596.69;5061190;28;19929;-82
2023/04/14 10:17:46;;;;;;;;;;;;;;;15.50;23.81;98598.56;5060410;28;19917;-82
2023/04/14 10:20:11;;;;;;;;;;;;;;;15.65;24.29;98588.66;5062211;28;19928;-81
2023/04/14 10:22:37;;;;;;;;;;;;;;;15.75;23.26;98581.13;5041613;28;19916;-82
2023/04/14 10:25:04;;;;;;;;;;;;;;;15.84;22.95;98584.44;5060924;28;19920;-87
2023/04/14 10:27:30;;;;;;;;;;;;;;;15.89;23.35;98587.31;5043807;28;19956;-81
2023/04/14 10:29:56;;;;;;;;;;;;;;;16.00;22.93;98577.91;5056243;28;19920;-82
2023/04/14 10:32:22;;;;;;;;;;;;;;;16.01;21.84;98579.56;5059626;28;20304;-78
2023/04/14 10:34:57;;;;;;;;;;;;;;;16.09;21.97;98571.38;5058046;28;19921;-80
2023/04/14 10:37:23;;;;;;;;;;;;;;;16.15;21.60;98567.91;5060316;28;20059;-81
2023/04/14 10:39:55;;;;;;;;;;;;;;;16.21;21.80;98567.91;5043457;28;19974;-84
2023/04/14 10:42:22;;;;;;;;;;;;;;;16.25;22.20;98568.34;5065012;28;19924;-82
2023/04/14 10:45:04;;;;;;;;;;;;;;;16.22;22.06;98561.59;5056601;28;20026;-84
2023/04/14 10:47:30;;;;;;;;;;;;;;;16.26;22.52;98567.31;5057300;28;20257;-81
2023/04/14 10:49:57;;;;;;;;;;;;;;;16.34;21.41;98564.47;5063048;28;19921;-81
2023/04/14 10:52:25;;;;;;;;;;;;;;;16.35;20.93;98563.44;5061735;28;19925;-80
2023/04/14 10:54:52;;;;;;;;;;;;;;;16.37;20.59;98558.75;5062497;28;21241;-81
2023/04/14 10:57:21;;;;;;;;;;;;;;;16.39;20.13;98559.34;5061038;28;19928;-81
2023/04/14 10:59:47;;;;;;;;;;;;;;;16.47;20.67;98556.50;5061179;28;20024;-81
2023/04/14 11:02:24;;;;;;;;;;;;;;;16.55;20.39;98558.13;5062217;28;19975;-80
2023/04/14 11:05:03;;;;;;;;;;;;;;;16.51;18.76;98570.22;5060449;28;19928;-81
2023/04/14 11:07:30;;;;;;;;;;;;;;;16.51;19.31;98555.06;5054659;28;19955;-81
2023/04/14 11:10:02;;;;;;;;;;;;;;;16.50;18.75;98553.41;5063463;28;19920;-82
2023/04/14 11:12:27;;;;;;;;;;;;;;;16.48;19.05;98554.66;5039567;28;19927;-81
2023/04/14 11:15:02;;;;;;;;;;;;;;;16.53;19.80;98557.50;5063368;28;20365;-82
2023/04/14 11:17:29;;;;;;;;;;;;;;;16.62;19.21;98553.63;5035895;28;19991;-82
2023/04/14 11:19:56;;;;;;;;;;;;;;;16.67;19.68;98548.53;5061917;28;19921;-81
2023/04/14 11:22:39;;;;;;;;;;;;;;;16.71;19.59;98550.56;5062450;28;19932;-81
2023/04/14 11:25:05;;;;;;;;;;;;;;;16.75;19.23;98554.47;5069237;22;19924;-83
2023/04/14 11:27:33;;;;;;;;;;;;;;;16.82;19.80;98543.81;5043688;28;20064;-83
2023/04/14 11:29:59;;;;;;;;;;;;;;;16.90;19.04;98540.09;5035854;28;19943;-83
2023/04/14 11:32:24;;;;;;;;;;;;;;;16.97;18.37;98540.88;5040985;28;20356;-82
2023/04/14 11:34:50;;;;;;;;;;;;;;;17.01;18.11;98536.81;5040311;28;19939;-83
2023/04/14 11:37:15;;;;;;;;;;;;;;;17.00;17.18;98527.16;5042922;28;19979;-83
2023/04/14 11:39:40;;;;;;;;;;;;;;;16.96;17.44;98526.78;5040479;28;19921;-83
2023/04/14 11:42:06;;;;;;;;;;;;;;;16.98;17.25;98524.69;5034450;28;19929;-83
2023/04/14 11:44:32;;;;;;;;;;;;;;;17.00;17.52;98521.84;5040115;28;20010;-82
2023/04/14 11:46:59;;;;;;;;;;;;;;;17.02;17.23;98520.59;5026791;28;19920;-84
2023/04/14 11:49:34;;;;;;;;;;;;;;;17.11;18.44;98515.84;5041014;28;20008;-85
2023/04/14 11:52:06;;;;;;;;;;;;;;;17.17;18.47;98509.69;5036279;28;19970;-84
2023/04/14 11:54:35;;;;;;;;;;;;;;;17.23;16.85;98514.19;5039353;28;19928;-84
2023/04/14 11:57:00;;;;;;;;;;;;;;;17.28;16.82;98509.03;5040469;28;19927;-84
2023/04/14 11:59:26;;;;;;;;;;;;;;;17.34;17.66;98496.69;5036822;28;20015;-85
2023/04/14 12:01:52;;;;;;;;;;;;;;;17.38;17.53;98506.72;5047819;28;19921;-85
2023/04/14 12:04:17;;;;;;;;;;;;;;;17.45;17.75;98494.19;5046462;28;19921;-84
2023/04/14 12:06:43;;;;;;;;;;;;;;;17.56;18.25;98490.03;5047102;28;19927;-84
2023/04/14 12:09:09;;;;;;;;;;;;;;;17.71;18.40;98487.94;5042787;28;19928;-83
2023/04/14 12:11:34;;;;;;;;;;;;;;;17.83;18.59;98480.91;5045599;28;19928;-85
2023/04/14 12:14:00;;;;;;;;;;;;;;;17.99;18.65;98482.22;5050678;28;20430;-84
2023/04/14 12:16:26;;;;;;;;;;;;;;;18.17;19.31;98482.28;5046966;28;19921;-85
2023/04/14 12:18:52;;;;;;;;;;;;;;;18.36;19.94;98475.97;5043624;28;19928;-85
2023/04/14 12:21:18;;;;;;;;;;;;;;;18.52;19.54;98471.91;5017062;28;19921;-84
2023/04/14 12:23:44;;;;;;;;;;;;;;;18.61;18.06;98472.50;5038101;28;19949;-85
2023/04/14 12:26:13;;;;;;;;;;;;;;;18.75;18.87;98476.66;5028064;28;20422;-83
2023/04/14 12:28:40;;;;;;;;;;;;;;;18.78;17.94;98476.25;5042846;28;19921;-84
2023/04/14 12:31:06;;;;;;;;;;;;;;;18.63;17.84;98465.06;5026375;28;20035;-83
2023/04/14 12:33:32;;;;;;;;;;;;;;;18.76;19.02;98467.63;5037072;28;19988;-84
2023/04/14 12:36:02;;;;;;;;;;;;;;;19.01;19.21;98456.88;5044992;28;20366;-86
2023/04/14 12:38:28;;;;;;;;;;;;;;;19.20;18.79;98466.50;5037897;28;19951;-79
2023/04/14 12:40:55;;;;;;;;;;;;;;;19.27;18.91;98448.50;5042754;28;19943;-78
2023/04/14 12:43:37;;;;;;;;;;;;;;;19.35;17.81;98452.75;5044269;28;20332;-78
2023/04/14 12:46:03;;;;;;;;;;;;;;;19.50;18.90;98448.63;5042206;28;19933;-79
2023/04/14 12:48:37;;;;;;;;;;;;;;;19.62;18.74;98448.69;5042054;28;19921;-80